createdAt,value
2016-06-24T00:00:06.895Z,0.96
2016-06-24T00:00:16.899Z,0.86
2016-06-24T00:00:26.905Z,0.96
2016-06-24T00:00:36.908Z,0.86
2016-06-24T00:00:46.916Z,0.96
2016-06-24T00:00:56.931Z,0.86
2016-06-24T00:01:06.927Z,0.86
2016-06-24T00:01:16.931Z,0.96
2016-06-24T00:01:26.949Z,0.67
2016-06-24T00:01:36.943Z,0.77
2016-06-24T00:01:46.945Z,0.57
2016-06-24T00:01:56.954Z,0.67
2016-06-24T00:02:06.958Z,0.57
2016-06-24T00:02:16.966Z,0.67
2016-06-24T00:02:26.972Z,0.86
2016-06-24T00:02:36.986Z,0.57
2016-06-24T00:02:46.986Z,0.77
2016-06-24T00:02:56.995Z,0.77
2016-06-24T00:03:06.995Z,0.67
2016-06-24T00:03:17.005Z,0.67
2016-06-24T00:03:27.008Z,0.67
2016-06-24T00:03:37.014Z,0.77
2016-06-24T00:03:47.017Z,0.77
2016-06-24T00:03:57.027Z,0.67
2016-06-24T00:04:07.032Z,0.67
2016-06-24T00:04:17.033Z,0.48
2016-06-24T00:04:27.042Z,0.48
2016-06-24T00:04:37.048Z,0.57
2016-06-24T00:04:47.048Z,0.48
2016-06-24T00:04:57.062Z,0.48
2016-06-24T00:05:07.065Z,0.57
2016-06-24T00:05:17.071Z,0.57
2016-06-24T00:05:27.091Z,0.67
2016-06-24T00:05:37.080Z,0.57
2016-06-24T00:05:47.087Z,0.67
2016-06-24T00:05:57.094Z,0.67
2016-06-24T00:06:07.096Z,0.57
2016-06-24T00:06:17.107Z,0.48
2016-06-24T00:06:27.112Z,0.48
2016-06-24T00:06:37.126Z,0.48
2016-06-24T00:06:47.120Z,0.57
2016-06-24T00:06:57.127Z,0.48
2016-06-24T00:07:07.133Z,0.48
2016-06-24T00:07:17.137Z,0.57
2016-06-24T00:07:27.146Z,0.67
2016-06-24T00:07:37.149Z,0.67
2016-06-24T00:07:47.155Z,0.67
2016-06-24T00:07:57.160Z,0.67
2016-06-24T00:08:07.165Z,0.29
2016-06-24T00:08:17.174Z,0.29
2016-06-24T00:08:27.181Z,0.29
2016-06-24T00:08:37.183Z,0.38
2016-06-24T00:08:47.216Z,0.38
2016-06-24T00:08:57.198Z,0.38
2016-06-24T00:09:07.220Z,0.29
2016-06-24T00:09:17.210Z,0.38
2016-06-24T00:09:27.213Z,0.38
2016-06-24T00:09:37.220Z,0.29
2016-06-24T00:09:47.236Z,0.38
2016-06-24T00:09:57.237Z,0.38
2016-06-24T00:10:07.239Z,0.38
2016-06-24T00:10:17.250Z,0.29
2016-06-24T00:10:27.245Z,0.38
2016-06-24T00:10:37.271Z,0.38
2016-06-24T00:10:47.257Z,0.38
2016-06-24T00:10:57.269Z,0.38
2016-06-24T00:11:07.269Z,0.38
2016-06-24T00:11:17.278Z,0.19
2016-06-24T00:11:27.285Z,0.38
2016-06-24T00:11:37.284Z,0.19
2016-06-24T00:11:47.292Z,0.29
2016-06-24T00:11:57.311Z,0.29
2016-06-24T00:12:07.307Z,0.29
2016-06-24T00:12:17.310Z,0.38
2016-06-24T00:12:27.319Z,0.38
2016-06-24T00:12:37.322Z,0.38
2016-06-24T00:12:47.327Z,0.38
2016-06-24T00:12:57.337Z,0.38
2016-06-24T00:13:07.346Z,0.38
2016-06-24T00:13:17.341Z,0.29
2016-06-24T00:13:27.369Z,0.38
2016-06-24T00:13:37.353Z,0.38
2016-06-24T00:13:47.365Z,0.38
2016-06-24T00:13:57.368Z,0.57
2016-06-24T00:14:07.370Z,0.38
2016-06-24T00:14:17.381Z,0.38
2016-06-24T00:14:27.386Z,0.48
2016-06-24T00:14:37.393Z,0.38
2016-06-24T00:14:47.394Z,0.38
2016-06-24T00:14:57.402Z,0.48
2016-06-24T00:15:07.410Z,0.38
2016-06-24T00:15:17.416Z,0.38
2016-06-24T00:15:27.418Z,0.38
2016-06-24T00:15:37.427Z,0.38
2016-06-24T00:15:47.437Z,0.38
2016-06-24T00:15:57.441Z,0.38
2016-06-24T00:16:07.450Z,0.38
2016-06-24T00:16:17.448Z,0.19
2016-06-24T00:16:27.452Z,0.09
2016-06-24T00:16:37.464Z,0.29
2016-06-24T00:16:47.468Z,0.09
2016-06-24T00:16:57.472Z,0.19
2016-06-24T00:17:07.482Z,0.19
2016-06-24T00:17:17.483Z,0.19
2016-06-24T00:17:27.494Z,0.09
2016-06-24T00:17:37.494Z,0.29
2016-06-24T00:17:47.504Z,0.29
2016-06-24T00:17:57.516Z,0.29
2016-06-24T00:18:07.517Z,0.19
2016-06-24T00:18:17.521Z,0.09
2016-06-24T00:18:27.522Z,0.09
2016-06-24T00:18:37.526Z,0.19
2016-06-24T00:18:47.536Z,0.29
2016-06-24T00:18:57.541Z,0.09
2016-06-24T00:19:07.547Z,0.19
2016-06-24T00:19:17.554Z,0.09
2016-06-24T00:19:27.562Z,0.38
2016-06-24T00:19:37.564Z,0.29
2016-06-24T00:19:47.569Z,0.29
2016-06-24T00:19:57.578Z,0.19
2016-06-24T00:20:07.582Z,0.38
2016-06-24T00:20:17.588Z,0.38
2016-06-24T00:20:27.602Z,0.38
2016-06-24T00:20:37.674Z,0.48
2016-06-24T00:20:47.619Z,0.29
2016-06-24T00:20:57.695Z,0.48
2016-06-24T00:21:07.618Z,0.38
2016-06-24T00:21:17.621Z,0.38
2016-06-24T00:21:27.625Z,0.19
2016-06-24T00:21:37.642Z,0.09
2016-06-24T00:21:47.649Z,0.09
2016-06-24T00:21:57.712Z,0.09
2016-06-24T00:22:07.647Z,0.19
2016-06-24T00:22:26.115Z,0.19
2016-06-24T00:22:36.078Z,0.19
2016-06-24T00:22:46.113Z,0.19
2016-06-24T00:22:56.096Z,0.19
2016-06-24T00:23:06.096Z,0.19
2016-06-24T00:23:16.112Z,0.19
2016-06-24T00:23:26.109Z,0.29
2016-06-24T00:23:36.117Z,0.09
2016-06-24T00:23:46.123Z,0.19
2016-06-24T00:23:56.124Z,0.29
2016-06-24T00:24:06.198Z,0.38
2016-06-24T00:24:16.185Z,0.19
2016-06-24T00:24:26.140Z,0.29
2016-06-24T00:24:36.150Z,0.19
2016-06-24T00:24:46.157Z,0.29
2016-06-24T00:24:56.159Z,0.19
2016-06-24T00:25:06.185Z,0.29
2016-06-24T00:25:16.199Z,0.19
2016-06-24T00:25:26.179Z,0.19
2016-06-24T00:25:36.179Z,0.09
2016-06-24T00:25:46.187Z,0.19
2016-06-24T00:25:56.194Z,0.19
2016-06-24T00:26:06.201Z,0.19
2016-06-24T00:26:16.234Z,0.09
2016-06-24T00:26:26.213Z,0.09
2016-06-24T00:26:36.215Z,0
2016-06-24T00:26:46.219Z,0
2016-06-24T00:26:56.228Z,0.09
2016-06-24T00:27:06.233Z,0.09
2016-06-24T00:27:16.240Z,0
2016-06-24T00:27:26.246Z,0
2016-06-24T00:27:36.248Z,0
2016-06-24T00:27:46.263Z,0
2016-06-24T00:27:56.261Z,0
2016-06-24T00:28:06.279Z,0
2016-06-24T00:28:16.273Z,0
2016-06-24T00:28:26.279Z,0
2016-06-24T00:28:36.292Z,0
2016-06-24T00:28:46.291Z,0
2016-06-24T00:28:56.295Z,0
2016-06-24T00:29:06.307Z,0.09
2016-06-24T00:29:16.310Z,0
2016-06-24T00:29:26.344Z,0
2016-06-24T00:29:36.316Z,0
2016-06-24T00:29:46.329Z,0
2016-06-24T00:29:56.328Z,0
2016-06-24T00:30:06.337Z,0
2016-06-24T00:30:16.346Z,0
2016-06-24T00:30:26.347Z,0.09
2016-06-24T00:30:36.350Z,0
2016-06-24T00:30:46.355Z,0
2016-06-24T00:30:56.364Z,0
2016-06-24T00:31:06.381Z,0
2016-06-24T00:31:16.418Z,0
2016-06-24T00:31:26.382Z,0
2016-06-24T00:31:36.393Z,0
2016-06-24T00:31:46.393Z,0
2016-06-24T00:31:56.398Z,0
2016-06-24T00:32:06.405Z,0
2016-06-24T00:32:16.411Z,0
2016-06-24T00:32:26.416Z,0
2016-06-24T00:32:36.421Z,0.09
2016-06-24T00:32:46.431Z,0
2016-06-24T00:32:56.466Z,0.09
2016-06-24T00:33:06.437Z,0.09
2016-06-24T00:33:16.442Z,0
2016-06-24T00:33:26.466Z,0
2016-06-24T00:33:36.456Z,0
2016-06-24T00:33:46.478Z,0
2016-06-24T00:33:56.469Z,0
2016-06-24T00:34:06.475Z,0
2016-06-24T00:34:16.482Z,0
2016-06-24T00:34:26.486Z,0
2016-06-24T00:34:36.486Z,0
2016-06-24T00:34:46.496Z,0
2016-06-24T00:34:56.507Z,0.09
2016-06-24T00:35:06.515Z,0
2016-06-24T00:35:16.515Z,0
2016-06-24T00:35:26.518Z,0
2016-06-24T00:35:36.522Z,0
2016-06-24T00:35:46.530Z,0.09
2016-06-24T00:35:56.546Z,0
2016-06-24T00:36:06.544Z,0
2016-06-24T00:36:16.552Z,0
2016-06-24T00:36:26.559Z,0
2016-06-24T00:36:36.563Z,0
2016-06-24T00:36:46.566Z,0
2016-06-24T00:36:56.582Z,0
2016-06-24T00:37:06.578Z,0
2016-06-24T00:37:16.580Z,0
2016-06-24T00:37:26.588Z,0
2016-06-24T00:37:36.596Z,0
2016-06-24T00:37:46.599Z,0
2016-06-24T00:37:56.609Z,0
2016-06-24T00:38:06.885Z,0
2016-06-24T00:38:16.620Z,0
2016-06-24T00:38:26.621Z,0
2016-06-24T00:38:36.629Z,0
2016-06-24T00:38:46.638Z,0
2016-06-24T00:38:56.642Z,0
2016-06-24T00:39:06.650Z,0
2016-06-24T00:39:16.651Z,0
2016-06-24T00:39:26.656Z,0
2016-06-24T00:39:36.668Z,0
2016-06-24T00:39:46.674Z,0
2016-06-24T00:39:56.679Z,0
2016-06-24T00:40:06.678Z,0
2016-06-24T00:40:16.686Z,0
2016-06-24T00:40:26.690Z,0
2016-06-24T00:40:36.695Z,0
2016-06-24T00:40:46.700Z,0
2016-06-24T00:40:56.710Z,0
2016-06-24T00:41:06.715Z,0
2016-06-24T00:41:16.720Z,0
2016-06-24T00:41:26.727Z,0
2016-06-24T00:41:36.731Z,0
2016-06-24T00:41:46.743Z,0
2016-06-24T00:41:56.747Z,0
2016-06-24T00:42:06.749Z,0
2016-06-24T00:42:16.765Z,0
2016-06-24T00:42:26.760Z,0
2016-06-24T00:42:36.777Z,0
2016-06-24T00:42:46.770Z,0
2016-06-24T00:42:56.776Z,0
2016-06-24T00:43:06.788Z,0
2016-06-24T00:43:16.787Z,0
2016-06-24T00:43:26.794Z,0
2016-06-24T00:43:36.798Z,0
2016-06-24T00:43:46.808Z,0
2016-06-24T00:43:56.814Z,0
2016-06-24T00:44:06.819Z,0
2016-06-24T00:44:16.821Z,0
2016-06-24T00:44:26.833Z,0
2016-06-24T00:44:36.831Z,0
2016-06-24T00:44:46.844Z,0
2016-06-24T00:44:56.855Z,0
2016-06-24T00:45:06.854Z,0
2016-06-24T00:45:16.860Z,0
2016-06-24T00:45:26.862Z,0
2016-06-24T00:45:36.877Z,0
2016-06-24T00:45:46.873Z,0
2016-06-24T00:45:56.883Z,0
2016-06-24T00:46:06.884Z,0
2016-06-24T00:46:16.892Z,0
2016-06-24T00:46:26.901Z,0
2016-06-24T00:46:36.906Z,0
2016-06-24T00:46:46.917Z,0
2016-06-24T00:46:56.919Z,0
2016-06-24T00:47:06.927Z,0
2016-06-24T00:47:16.927Z,0
2016-06-24T00:47:26.933Z,0
2016-06-24T00:47:36.942Z,0
2016-06-24T00:47:46.949Z,0
2016-06-24T00:47:56.954Z,0
2016-06-24T00:48:06.958Z,0
2016-06-24T00:48:16.963Z,0
2016-06-24T00:48:26.966Z,0
2016-06-24T00:48:36.975Z,0
2016-06-24T00:48:46.977Z,0
2016-06-24T00:48:56.984Z,0
2016-06-24T00:49:06.993Z,0
2016-06-24T00:49:17.001Z,0
2016-06-24T00:49:27.003Z,0
2016-06-24T00:49:37.007Z,0
2016-06-24T00:49:47.014Z,0
2016-06-24T00:49:57.025Z,0
2016-06-24T00:50:07.027Z,0
2016-06-24T00:50:17.031Z,0
2016-06-24T00:50:27.039Z,0
2016-06-24T00:50:37.049Z,0
2016-06-24T00:50:47.049Z,0
2016-06-24T00:50:57.053Z,0
2016-06-24T00:51:07.059Z,0
2016-06-24T00:51:17.062Z,0
2016-06-24T00:51:27.077Z,0
2016-06-24T00:51:37.084Z,0
2016-06-24T00:51:47.085Z,0
2016-06-24T00:51:57.093Z,0
2016-06-24T00:52:07.094Z,0
2016-06-24T00:52:17.102Z,0
2016-06-24T00:52:27.114Z,0
2016-06-24T00:52:37.111Z,0
2016-06-24T00:52:47.127Z,0
2016-06-24T00:52:57.124Z,0
2016-06-24T00:53:07.128Z,0
2016-06-24T00:53:17.130Z,0
2016-06-24T00:53:27.141Z,0
2016-06-24T00:53:37.145Z,0
2016-06-24T00:53:47.149Z,0
2016-06-24T00:53:57.159Z,0
2016-06-24T00:54:07.159Z,0
2016-06-24T00:54:17.171Z,0
2016-06-24T00:54:27.175Z,0
2016-06-24T00:54:37.185Z,0
2016-06-24T00:54:47.191Z,0
2016-06-24T00:54:57.201Z,0
2016-06-24T00:55:07.198Z,0
2016-06-24T00:55:17.206Z,0
2016-06-24T00:55:27.211Z,0
2016-06-24T00:55:37.221Z,0
2016-06-24T00:55:47.245Z,0
2016-06-24T00:55:57.230Z,0
2016-06-24T00:56:07.234Z,0
2016-06-24T00:56:17.239Z,0
2016-06-24T00:56:27.245Z,0
2016-06-24T00:56:37.246Z,0
2016-06-24T00:56:47.256Z,0
2016-06-24T00:56:57.261Z,0
2016-06-24T00:57:07.266Z,0
2016-06-24T00:57:17.269Z,0
2016-06-24T00:57:27.286Z,0
2016-06-24T00:57:37.291Z,0
2016-06-24T00:57:47.288Z,0
2016-06-24T00:57:57.295Z,0
2016-06-24T00:58:07.301Z,0
2016-06-24T00:58:17.305Z,0
2016-06-24T00:58:27.313Z,0
2016-06-24T00:58:37.316Z,0
2016-06-24T00:58:47.333Z,0
2016-06-24T00:58:57.335Z,0
2016-06-24T00:59:07.339Z,0
2016-06-24T00:59:17.347Z,0
2016-06-24T00:59:27.345Z,0
2016-06-24T00:59:37.353Z,0
2016-06-24T00:59:47.360Z,0
2016-06-24T00:59:57.362Z,0
2016-06-24T01:00:07.386Z,0
2016-06-24T01:00:17.378Z,0
2016-06-24T01:00:27.383Z,0
2016-06-24T01:00:37.397Z,0
2016-06-24T01:00:47.393Z,0
2016-06-24T01:00:57.405Z,0
2016-06-24T01:01:07.412Z,0
2016-06-24T01:01:17.411Z,0
2016-06-24T01:01:27.418Z,0
2016-06-24T01:01:37.426Z,0
2016-06-24T01:01:47.431Z,0
2016-06-24T01:01:57.441Z,0
2016-06-24T01:02:07.444Z,0
2016-06-24T01:02:17.445Z,0
2016-06-24T01:02:27.450Z,0
2016-06-24T01:02:37.455Z,0
2016-06-24T01:02:47.467Z,0
2016-06-24T01:02:57.469Z,0
2016-06-24T01:03:07.478Z,0
2016-06-24T01:03:17.477Z,0
2016-06-24T01:03:27.491Z,0
2016-06-24T01:03:37.495Z,0
2016-06-24T01:03:47.517Z,0
2016-06-24T01:03:57.506Z,0
2016-06-24T01:04:07.515Z,0
2016-06-24T01:04:17.517Z,0
2016-06-24T01:04:27.520Z,0
2016-06-24T01:04:37.524Z,0
2016-06-24T01:04:47.530Z,0
2016-06-24T01:04:57.538Z,0
2016-06-24T01:05:07.547Z,0
2016-06-24T01:05:17.550Z,0
2016-06-24T01:05:27.553Z,0
2016-06-24T01:05:37.561Z,0
2016-06-24T01:05:47.562Z,0
2016-06-24T01:05:57.572Z,0
2016-06-24T01:06:07.579Z,0
2016-06-24T01:06:17.591Z,0
2016-06-24T01:06:27.591Z,0
2016-06-24T01:06:37.594Z,0
2016-06-24T01:06:47.601Z,0
2016-06-24T01:06:57.606Z,0
2016-06-24T01:07:07.617Z,0
2016-06-24T01:07:17.619Z,0
2016-06-24T01:07:27.623Z,0
2016-06-24T01:07:37.628Z,0
2016-06-24T01:07:47.638Z,0
2016-06-24T01:07:57.650Z,0
2016-06-24T01:08:07.647Z,0
2016-06-24T01:08:17.661Z,0
2016-06-24T01:08:27.662Z,0
2016-06-24T01:08:37.660Z,0
2016-06-24T01:08:47.678Z,0
2016-06-24T01:08:57.682Z,0
2016-06-24T01:09:07.687Z,0
2016-06-24T01:09:17.683Z,0
2016-06-24T01:09:27.694Z,0
2016-06-24T01:09:37.701Z,0
2016-06-24T01:09:47.708Z,0
2016-06-24T01:09:57.711Z,0
2016-06-24T01:10:07.718Z,0
2016-06-24T01:10:17.733Z,0
2016-06-24T01:10:27.730Z,0
2016-06-24T01:10:37.736Z,0
2016-06-24T01:10:47.737Z,0
2016-06-24T01:10:57.747Z,0
2016-06-24T01:11:07.751Z,0
2016-06-24T01:11:17.759Z,0
2016-06-24T01:11:27.762Z,0
2016-06-24T01:11:37.770Z,0
2016-06-24T01:11:47.775Z,0
2016-06-24T01:11:57.776Z,0
2016-06-24T01:12:07.784Z,0
2016-06-24T01:12:17.794Z,0
2016-06-24T01:12:27.801Z,0
2016-06-24T01:12:37.803Z,0
2016-06-24T01:12:47.808Z,0
2016-06-24T01:12:57.811Z,0
2016-06-24T01:13:07.820Z,0
2016-06-24T01:13:17.826Z,0
2016-06-24T01:13:27.826Z,0
2016-06-24T01:13:37.837Z,0
2016-06-24T01:13:47.839Z,0
2016-06-24T01:13:57.851Z,0
2016-06-24T01:14:07.853Z,0
2016-06-24T01:14:17.865Z,0
2016-06-24T01:14:27.867Z,0
2016-06-24T01:14:37.871Z,0
2016-06-24T01:14:47.876Z,0
2016-06-24T01:14:57.885Z,0
2016-06-24T01:15:07.894Z,0
2016-06-24T01:15:17.894Z,0
2016-06-24T01:15:27.899Z,0
2016-06-24T01:15:37.906Z,0
2016-06-24T01:15:47.910Z,0
2016-06-24T01:15:57.926Z,0
2016-06-24T01:16:07.925Z,0
2016-06-24T01:16:17.931Z,0
2016-06-24T01:16:27.935Z,0
2016-06-24T01:16:37.943Z,0
2016-06-24T01:16:47.959Z,0
2016-06-24T01:16:57.950Z,0
2016-06-24T01:17:07.959Z,0
2016-06-24T01:17:17.970Z,0
2016-06-24T01:17:27.974Z,0
2016-06-24T01:17:37.982Z,0
2016-06-24T01:17:47.981Z,0
2016-06-24T01:17:57.987Z,0
2016-06-24T01:18:07.994Z,0
2016-06-24T01:18:18.003Z,0
2016-06-24T01:18:28.011Z,0
2016-06-24T01:18:38.016Z,0
2016-06-24T01:18:48.020Z,0
2016-06-24T01:18:58.023Z,0
2016-06-24T01:19:08.030Z,0
2016-06-24T01:19:18.033Z,0
2016-06-24T01:19:28.040Z,0
2016-06-24T01:19:38.047Z,0
2016-06-24T01:19:48.052Z,0
2016-06-24T01:19:58.060Z,0
2016-06-24T01:20:08.062Z,0
2016-06-24T01:20:18.068Z,0
2016-06-24T01:20:28.076Z,0
2016-06-24T01:20:38.080Z,0
2016-06-24T01:20:48.084Z,0
2016-06-24T01:20:58.091Z,0
2016-06-24T01:21:08.098Z,0
2016-06-24T01:21:18.105Z,0
2016-06-24T01:21:28.107Z,0
2016-06-24T01:21:38.122Z,0
2016-06-24T01:21:48.122Z,0
2016-06-24T01:21:58.127Z,0
2016-06-24T01:22:08.132Z,0
2016-06-24T01:22:18.142Z,0
2016-06-24T01:22:28.141Z,0
2016-06-24T01:22:38.152Z,0
2016-06-24T01:22:48.152Z,0
2016-06-24T01:22:58.165Z,0
2016-06-24T01:23:08.166Z,0
2016-06-24T01:23:18.171Z,0
2016-06-24T01:23:28.177Z,0
2016-06-24T01:23:38.179Z,0
2016-06-24T01:23:48.187Z,0
2016-06-24T01:23:58.199Z,0
2016-06-24T01:24:08.204Z,0
2016-06-24T01:24:18.203Z,0
2016-06-24T01:24:28.213Z,0
2016-06-24T01:24:38.221Z,0
2016-06-24T01:24:48.220Z,0
2016-06-24T01:24:58.225Z,0
2016-06-24T01:25:08.238Z,0
2016-06-24T01:25:18.244Z,0
2016-06-24T01:25:28.251Z,0
2016-06-24T01:25:38.250Z,0
2016-06-24T01:25:48.253Z,0
2016-06-24T01:25:58.263Z,0
2016-06-24T01:26:08.270Z,0
2016-06-24T01:26:18.273Z,0
2016-06-24T01:26:28.295Z,0
2016-06-24T01:26:38.286Z,0
2016-06-24T01:26:48.296Z,0
2016-06-24T01:26:58.300Z,0
2016-06-24T01:27:08.307Z,0
2016-06-24T01:27:18.311Z,0
2016-06-24T01:27:28.324Z,0
2016-06-24T01:27:38.327Z,0
2016-06-24T01:27:48.328Z,0
2016-06-24T01:27:58.336Z,0
2016-06-24T01:28:08.344Z,0
2016-06-24T01:28:18.349Z,0
2016-06-24T01:28:28.351Z,0
2016-06-24T01:28:38.353Z,0
2016-06-24T01:28:48.359Z,0
2016-06-24T01:28:58.366Z,0
2016-06-24T01:29:08.376Z,0
2016-06-24T01:29:18.378Z,0
2016-06-24T01:29:28.382Z,0
2016-06-24T01:29:38.393Z,0
2016-06-24T01:29:48.398Z,0
2016-06-24T01:29:58.406Z,0
2016-06-24T01:30:08.408Z,0
2016-06-24T01:30:18.412Z,0
2016-06-24T01:30:28.416Z,0
2016-06-24T01:30:38.431Z,0
2016-06-24T01:30:48.436Z,0
2016-06-24T01:30:58.438Z,0
2016-06-24T01:31:08.443Z,0
2016-06-24T01:31:18.459Z,0
2016-06-24T01:31:28.453Z,0
2016-06-24T01:31:38.461Z,0
2016-06-24T01:31:48.467Z,0
2016-06-24T01:31:58.472Z,0
2016-06-24T01:32:08.477Z,0
2016-06-24T01:32:18.486Z,0
2016-06-24T01:32:28.489Z,0
2016-06-24T01:32:38.494Z,0
2016-06-24T01:32:48.499Z,0
2016-06-24T01:32:58.508Z,0
2016-06-24T01:33:08.516Z,0
2016-06-24T01:33:18.518Z,0
2016-06-24T01:33:28.519Z,0
2016-06-24T01:33:38.527Z,0
2016-06-24T01:33:48.535Z,0
2016-06-24T01:33:58.542Z,0
2016-06-24T01:34:08.548Z,0
2016-06-24T01:34:18.553Z,0
2016-06-24T01:34:28.558Z,0
2016-06-24T01:34:38.595Z,0
2016-06-24T01:34:48.570Z,0
2016-06-24T01:34:58.577Z,0
2016-06-24T01:35:08.578Z,0
2016-06-24T01:35:18.582Z,0
2016-06-24T01:35:28.596Z,0
2016-06-24T01:35:38.602Z,0
2016-06-24T01:35:48.608Z,0
2016-06-24T01:35:58.612Z,0
2016-06-24T01:36:08.616Z,0
2016-06-24T01:36:18.623Z,0
2016-06-24T01:36:28.625Z,0
2016-06-24T01:36:38.634Z,0
2016-06-24T01:36:48.639Z,0
2016-06-24T01:36:58.647Z,0
2016-06-24T01:37:08.651Z,0
2016-06-24T01:37:18.658Z,0
2016-06-24T01:37:28.663Z,0
2016-06-24T01:37:38.663Z,0
2016-06-24T01:37:48.674Z,0
2016-06-24T01:37:58.682Z,0
2016-06-24T01:38:08.686Z,0
2016-06-24T01:38:18.690Z,0
2016-06-24T01:38:28.703Z,0
2016-06-24T01:38:38.697Z,0
2016-06-24T01:38:48.711Z,0
2016-06-24T01:38:58.718Z,0
2016-06-24T01:39:08.722Z,0
2016-06-24T01:39:18.727Z,0
2016-06-24T01:39:28.732Z,0
2016-06-24T01:39:38.741Z,0
2016-06-24T01:39:48.746Z,0
2016-06-24T01:39:58.747Z,0
2016-06-24T01:40:08.751Z,0
2016-06-24T01:40:18.761Z,0
2016-06-24T01:40:28.763Z,0
2016-06-24T01:40:38.769Z,0
2016-06-24T01:40:48.776Z,0
2016-06-24T01:40:58.786Z,0
2016-06-24T01:41:08.791Z,0
2016-06-24T01:41:18.797Z,0
2016-06-24T01:41:28.803Z,0
2016-06-24T01:41:38.808Z,0
2016-06-24T01:41:48.812Z,0
2016-06-24T01:41:58.818Z,0
2016-06-24T01:42:08.831Z,0
2016-06-24T01:42:18.827Z,0
2016-06-24T01:42:28.832Z,0
2016-06-24T01:42:38.841Z,0
2016-06-24T01:42:48.848Z,0
2016-06-24T01:42:58.852Z,0
2016-06-24T01:43:08.860Z,0
2016-06-24T01:43:18.868Z,0
2016-06-24T01:43:28.869Z,0
2016-06-24T01:43:38.880Z,0
2016-06-24T01:43:48.889Z,0
2016-06-24T01:43:58.890Z,0
2016-06-24T01:44:08.894Z,0
2016-06-24T01:44:18.897Z,0
2016-06-24T01:44:28.902Z,0
2016-06-24T01:44:38.910Z,0
2016-06-24T01:44:48.914Z,0
2016-06-24T01:44:58.923Z,0
2016-06-24T01:45:08.930Z,0
2016-06-24T01:45:18.932Z,0
2016-06-24T01:45:28.941Z,0
2016-06-24T01:45:38.944Z,0
2016-06-24T01:45:48.945Z,0
2016-06-24T01:45:58.970Z,0
2016-06-24T01:46:08.971Z,0
2016-06-24T01:46:18.965Z,0
2016-06-24T01:46:28.973Z,0
2016-06-24T01:46:38.983Z,0
2016-06-24T01:46:48.991Z,0
2016-06-24T01:46:58.995Z,0
2016-06-24T01:47:08.999Z,0
2016-06-24T01:47:19.007Z,0
2016-06-24T01:47:29.010Z,0
2016-06-24T01:47:39.014Z,0
2016-06-24T01:47:49.022Z,0
2016-06-24T01:47:59.023Z,0
2016-06-24T01:48:09.031Z,0
2016-06-24T01:48:19.035Z,0
2016-06-24T01:48:29.040Z,0
2016-06-24T01:48:39.046Z,0
2016-06-24T01:48:49.053Z,0
2016-06-24T01:48:59.069Z,0
2016-06-24T01:49:09.067Z,0
2016-06-24T01:49:19.069Z,0
2016-06-24T01:49:29.075Z,0
2016-06-24T01:49:39.082Z,0
2016-06-24T01:49:49.088Z,0
2016-06-24T01:49:59.111Z,0
2016-06-24T01:50:09.104Z,0
2016-06-24T01:50:19.106Z,0
2016-06-24T01:50:29.114Z,0
2016-06-24T01:50:39.114Z,0
2016-06-24T01:50:49.125Z,0
2016-06-24T01:50:59.131Z,0
2016-06-24T01:51:09.130Z,0
2016-06-24T01:51:19.138Z,0
2016-06-24T01:51:29.165Z,0
2016-06-24T01:51:39.154Z,0
2016-06-24T01:51:49.160Z,0
2016-06-24T01:51:59.167Z,0
2016-06-24T01:52:09.170Z,0
2016-06-24T01:52:19.176Z,0
2016-06-24T01:52:29.185Z,0
2016-06-24T01:52:39.186Z,0
2016-06-24T01:52:49.194Z,0
2016-06-24T01:52:59.199Z,0
2016-06-24T01:53:09.204Z,0
2016-06-24T01:53:19.210Z,0
2016-06-24T01:53:29.217Z,0
2016-06-24T01:53:39.220Z,0
2016-06-24T01:53:49.231Z,0
2016-06-24T01:53:59.239Z,0
2016-06-24T01:54:09.239Z,0
2016-06-24T01:54:19.245Z,0
2016-06-24T01:54:29.258Z,0
2016-06-24T01:54:39.253Z,0
2016-06-24T01:54:49.268Z,0
2016-06-24T01:54:59.273Z,0
2016-06-24T01:55:09.275Z,0
2016-06-24T01:55:19.280Z,0
2016-06-24T01:55:29.287Z,0
2016-06-24T01:55:39.290Z,0
2016-06-24T01:55:49.299Z,0
2016-06-24T01:55:59.303Z,0
2016-06-24T01:56:09.308Z,0
2016-06-24T01:56:19.314Z,0
2016-06-24T01:56:29.322Z,0
2016-06-24T01:56:39.327Z,0
2016-06-24T01:56:49.338Z,0
2016-06-24T01:56:59.338Z,0
2016-06-24T01:57:09.342Z,0
2016-06-24T01:57:19.350Z,0
2016-06-24T01:57:29.357Z,0
2016-06-24T01:57:39.358Z,0
2016-06-24T01:57:49.369Z,0
2016-06-24T01:57:59.374Z,0
2016-06-24T01:58:09.376Z,0
2016-06-24T01:58:19.384Z,0
2016-06-24T01:58:29.390Z,0
2016-06-24T01:58:39.391Z,0
2016-06-24T01:58:49.406Z,0
2016-06-24T01:58:59.413Z,0
2016-06-24T01:59:09.418Z,0
2016-06-24T01:59:19.419Z,0
2016-06-24T01:59:29.427Z,0
2016-06-24T01:59:39.431Z,0
2016-06-24T01:59:49.432Z,0
2016-06-24T01:59:59.442Z,0
2016-06-24T02:00:09.449Z,0
2016-06-24T02:00:19.453Z,0
2016-06-24T02:00:29.462Z,0
2016-06-24T02:00:39.466Z,0
2016-06-24T02:00:49.469Z,0
2016-06-24T02:00:59.475Z,0
2016-06-24T02:01:09.483Z,0
2016-06-24T02:01:19.484Z,0
2016-06-24T02:01:29.493Z,0
2016-06-24T02:01:39.501Z,0
2016-06-24T02:01:49.507Z,0
2016-06-24T02:01:59.520Z,0
2016-06-24T02:02:09.518Z,0
2016-06-24T02:02:19.527Z,0
2016-06-24T02:02:29.529Z,0
2016-06-24T02:02:39.534Z,0
2016-06-24T02:02:49.542Z,0
2016-06-24T02:02:59.550Z,0
2016-06-24T02:03:09.560Z,0
2016-06-24T02:03:19.553Z,0
2016-06-24T02:03:29.564Z,0
2016-06-24T02:03:39.567Z,0
2016-06-24T02:03:49.572Z,0
2016-06-24T02:03:59.585Z,0
2016-06-24T02:04:09.589Z,0
2016-06-24T02:04:19.593Z,0
2016-06-24T02:04:29.598Z,0
2016-06-24T02:04:39.602Z,0
2016-06-24T02:04:49.611Z,0
2016-06-24T02:04:59.614Z,0
2016-06-24T02:05:09.624Z,0
2016-06-24T02:05:19.627Z,0
2016-06-24T02:05:29.639Z,0
2016-06-24T02:05:39.641Z,0
2016-06-24T02:05:49.645Z,0
2016-06-24T02:05:59.655Z,0
2016-06-24T02:06:09.658Z,0
2016-06-24T02:06:19.666Z,0
2016-06-24T02:06:29.679Z,0
2016-06-24T02:06:39.677Z,0
2016-06-24T02:06:49.683Z,0
2016-06-24T02:06:59.686Z,0
2016-06-24T02:07:09.690Z,0
2016-06-24T02:07:19.702Z,0
2016-06-24T02:07:29.705Z,0
2016-06-24T02:07:39.706Z,0
2016-06-24T02:07:49.744Z,0
2016-06-24T02:07:59.724Z,0
2016-06-24T02:08:09.730Z,0
2016-06-24T02:08:19.735Z,0
2016-06-24T02:08:29.742Z,0
2016-06-24T02:08:39.742Z,0
2016-06-24T02:08:49.753Z,0
2016-06-24T02:08:59.757Z,0
2016-06-24T02:09:09.763Z,0
2016-06-24T02:09:19.767Z,0
2016-06-24T02:09:29.776Z,0
2016-06-24T02:09:39.776Z,0
2016-06-24T02:09:49.787Z,0
2016-06-24T02:09:59.789Z,0
2016-06-24T02:10:09.792Z,0
2016-06-24T02:10:19.803Z,0
2016-06-24T02:10:29.821Z,0
2016-06-24T02:10:39.818Z,0
2016-06-24T02:10:49.818Z,0
2016-06-24T02:10:59.829Z,0
2016-06-24T02:11:09.834Z,0
2016-06-24T02:11:19.838Z,0
2016-06-24T02:11:29.841Z,0
2016-06-24T02:11:39.851Z,0
2016-06-24T02:11:49.857Z,0
2016-06-24T02:11:59.858Z,0
2016-06-24T02:12:09.865Z,0
2016-06-24T02:12:19.868Z,0
2016-06-24T02:12:29.874Z,0
2016-06-24T02:12:39.885Z,0
2016-06-24T02:12:49.886Z,0
2016-06-24T02:12:59.896Z,0
2016-06-24T02:13:09.897Z,0
2016-06-24T02:13:19.906Z,0
2016-06-24T02:13:29.922Z,0
2016-06-24T02:13:39.921Z,0
2016-06-24T02:13:49.916Z,0
2016-06-24T02:13:59.932Z,0
2016-06-24T02:14:09.942Z,0
2016-06-24T02:14:19.938Z,0
2016-06-24T02:14:29.946Z,0
2016-06-24T02:14:39.951Z,0
2016-06-24T02:14:49.957Z,0
2016-06-24T02:14:59.962Z,0
2016-06-24T02:15:09.971Z,0
2016-06-24T02:15:19.983Z,0
2016-06-24T02:15:29.977Z,0
2016-06-24T02:15:39.982Z,0
2016-06-24T02:15:49.995Z,0
2016-06-24T02:15:59.997Z,0
2016-06-24T02:16:10.007Z,0
2016-06-24T02:16:20.012Z,0
2016-06-24T02:16:30.014Z,0
2016-06-24T02:16:40.023Z,0
2016-06-24T02:16:50.030Z,0
2016-06-24T02:17:00.034Z,0
2016-06-24T02:17:10.036Z,0
2016-06-24T02:17:20.052Z,0
2016-06-24T02:17:30.051Z,0
2016-06-24T02:17:40.054Z,0
2016-06-24T02:17:50.060Z,0
2016-06-24T02:18:00.064Z,0
2016-06-24T02:18:10.074Z,0
2016-06-24T02:18:20.077Z,0
2016-06-24T02:18:30.086Z,0
2016-06-24T02:18:40.091Z,0
2016-06-24T02:18:50.100Z,0
2016-06-24T02:19:00.104Z,0
2016-06-24T02:19:10.111Z,0
2016-06-24T02:19:20.113Z,0
2016-06-24T02:19:30.119Z,0
2016-06-24T02:19:40.130Z,0
2016-06-24T02:19:50.130Z,0
2016-06-24T02:20:00.139Z,0
2016-06-24T02:20:10.142Z,0
2016-06-24T02:20:20.150Z,0
2016-06-24T02:20:30.153Z,0
2016-06-24T02:20:40.153Z,0
2016-06-24T02:20:50.162Z,0
2016-06-24T02:21:00.175Z,0
2016-06-24T02:21:10.174Z,0
2016-06-24T02:21:20.184Z,0
2016-06-24T02:21:30.185Z,0
2016-06-24T02:21:40.194Z,0
2016-06-24T02:21:50.203Z,0
2016-06-24T02:22:00.207Z,0
2016-06-24T02:22:10.209Z,0
2016-06-24T02:22:20.217Z,0
2016-06-24T02:22:30.222Z,0
2016-06-24T02:22:40.223Z,0
2016-06-24T02:22:50.229Z,0
2016-06-24T02:23:00.242Z,0
2016-06-24T02:23:10.251Z,0
2016-06-24T02:23:20.258Z,0
2016-06-24T02:23:30.256Z,0
2016-06-24T02:23:40.264Z,0
2016-06-24T02:23:50.269Z,0
2016-06-24T02:24:00.284Z,0
2016-06-24T02:24:10.278Z,0
2016-06-24T02:24:20.290Z,0
2016-06-24T02:24:30.293Z,0
2016-06-24T02:24:40.298Z,0
2016-06-24T02:24:50.300Z,0
2016-06-24T02:25:00.310Z,0